Time;durP1;ratioP1;P1;durP2;ratioP2;P2;SDS_P1;SDS_P2;PMS_P1;PMS_P2;Temp;Humidity;BMP_temperature;BMP_pressure;BME280_temperature;BME280_humidity;BME280_pressure;Samples;Min_cycle;Max_cycle;Signal;HPM_P1;HPM_P2
2022/03/10 00:00:07;;;;;;;6.82;3.92;;;-10.20;99.90;;;;;;4391281;32;20154;-64
2022/03/10 00:02:33;;;;;;;5.87;3.62;;;-10.20;99.90;;;;;;4389678;32;20152;-63
2022/03/10 00:05:00;;;;;;;5.55;3.25;;;-10.30;99.90;;;;;;4391115;32;20624;-64
2022/03/10 00:07:26;;;;;;;4.95;3.55;;;-10.30;99.90;;;;;;4390171;32;20078;-62
2022/03/10 00:09:52;;;;;;;5.93;3.45;;;-10.30;99.90;;;;;;4389321;32;20517;-63
2022/03/10 00:12:19;;;;;;;4.70;3.05;;;-10.30;99.90;;;;;;4389735;32;20078;-63
2022/03/10 00:14:45;;;;;;;5.28;3.40;;;-10.30;99.90;;;;;;4377239;32;20081;-63
2022/03/10 00:17:12;;;;;;;5.70;3.45;;;-10.30;99.90;;;;;;4380088;32;20085;-63
2022/03/10 00:19:38;;;;;;;5.15;3.25;;;-10.30;99.90;;;;;;4392446;32;20074;-63
2022/03/10 00:22:05;;;;;;;6.85;3.65;;;-10.30;99.90;;;;;;4392606;32;20077;-64
2022/03/10 00:24:31;;;;;;;7.10;3.97;;;-10.20;99.90;;;;;;4405022;32;20107;-64
2022/03/10 00:26:58;;;;;;;5.20;3.60;;;-10.30;99.90;;;;;;4393603;32;20077;-63
2022/03/10 00:29:24;;;;;;;5.53;3.35;;;-10.30;99.90;;;;;;4393137;32;20635;-63
2022/03/10 00:31:50;;;;;;;6.28;3.40;;;-10.20;99.90;;;;;;4394322;32;20088;-63
2022/03/10 00:34:17;;;;;;;5.22;3.33;;;-10.30;99.90;;;;;;4391879;32;20504;-63
2022/03/10 00:36:43;;;;;;;5.45;3.20;;;-10.20;99.90;;;;;;4380208;32;20082;-64
2022/03/10 00:39:09;;;;;;;5.15;3.50;;;-10.20;99.90;;;;;;4392235;32;20174;-63
2022/03/10 00:41:36;;;;;;;4.70;3.20;;;-10.20;99.90;;;;;;4393789;32;20081;-64
2022/03/10 00:44:02;;;;;;;4.97;3.40;;;-10.20;99.90;;;;;;4393570;32;20172;-64
2022/03/10 00:46:28;;;;;;;5.70;3.40;;;-10.20;99.90;;;;;;4391982;32;20588;-64
2022/03/10 00:48:55;;;;;;;5.95;3.47;;;-10.20;99.90;;;;;;4393524;32;20099;-63
2022/03/10 00:51:21;;;;;;;6.22;3.40;;;-10.30;99.90;;;;;;4393744;32;20079;-65
2022/03/10 00:53:47;;;;;;;5.75;4.00;;;-10.20;99.90;;;;;;4393332;32;20062;-63
2022/03/10 00:56:14;;;;;;;4.90;3.28;;;-10.30;99.90;;;;;;4393518;32;20085;-63
2022/03/10 00:58:40;;;;;;;6.30;4.05;;;-10.30;99.90;;;;;;4393177;32;20073;-63
2022/03/10 01:01:06;;;;;;;6.37;3.90;;;-10.40;99.90;;;;;;4391703;32;20075;-63
2022/03/10 01:03:32;;;;;;;5.43;3.58;;;-10.40;99.90;;;;;;4391586;32;20437;-63
2022/03/10 01:05:59;;;;;;;4.87;3.40;;;-10.40;99.90;;;;;;4393521;32;20157;-63
2022/03/10 01:08:25;;;;;;;5.35;3.50;;;-10.40;99.90;;;;;;4392123;32;20153;-64
2022/03/10 01:10:51;;;;;;;6.07;3.50;;;-10.40;99.90;;;;;;4391848;32;20088;-64
2022/03/10 01:13:19;;;;;;;5.53;3.78;;;-10.40;99.90;;;;;;4391879;32;20536;-63
2022/03/10 01:15:47;;;;;;;7.57;4.40;;;-10.40;99.90;;;;;;4391372;32;20072;-64
2022/03/10 01:18:14;;;;;;;5.47;3.78;;;-10.40;99.90;;;;;;4393211;32;20158;-64
2022/03/10 01:20:41;;;;;;;6.15;3.95;;;-10.50;99.90;;;;;;4392222;32;20098;-63
2022/03/10 01:23:10;;;;;;;6.62;3.90;;;-10.50;99.90;;;;;;4391600;32;20073;-64
2022/03/10 01:25:37;;;;;;;6.12;3.28;;;-10.50;99.90;;;;;;4393283;32;20487;-63
2022/03/10 01:28:03;;;;;;;7.87;4.50;;;-10.40;99.90;;;;;;4392908;32;20154;-63
2022/03/10 01:30:30;;;;;;;7.47;4.68;;;-10.50;99.90;;;;;;4391544;32;20173;-63
2022/03/10 01:32:56;;;;;;;5.82;4.00;;;-10.50;99.90;;;;;;4392999;32;20089;-64
2022/03/10 01:35:22;;;;;;;6.82;3.90;;;-10.50;99.90;;;;;;4392915;32;20085;-64
2022/03/10 01:37:49;;;;;;;5.82;3.50;;;-10.60;99.90;;;;;;4392853;32;20154;-64
2022/03/10 01:40:18;;;;;;;5.85;3.70;;;-10.60;99.90;;;;;;4393028;32;20077;-64
2022/03/10 01:42:45;;;;;;;6.35;3.70;;;-10.50;99.90;;;;;;4391029;32;20467;-64
2022/03/10 01:45:13;;;;;;;6.82;3.97;;;-10.60;99.90;;;;;;4393009;32;20520;-64
2022/03/10 01:47:40;;;;;;;7.47;3.75;;;-10.50;99.90;;;;;;4403744;32;20069;-64
2022/03/10 01:50:09;;;;;;;6.07;3.55;;;-10.50;99.90;;;;;;4391150;32;20153;-64
2022/03/10 01:52:36;;;;;;;5.55;4.07;;;-10.50;99.90;;;;;;4391322;32;20081;-64
2022/03/10 01:55:04;;;;;;;5.97;4.37;;;-10.50;99.90;;;;;;4403664;32;20146;-63
2022/03/10 01:57:30;;;;;;;6.05;4.03;;;-10.60;99.90;;;;;;4378805;32;20128;-63
2022/03/10 01:59:56;;;;;;;8.38;4.18;;;-10.60;99.90;;;;;;4391232;32;20072;-64
2022/03/10 02:02:23;;;;;;;6.35;3.75;;;-10.60;99.90;;;;;;4391939;32;20077;-63
2022/03/10 02:04:50;;;;;;;7.32;4.00;;;-10.60;99.90;;;;;;4378838;32;20097;-65
2022/03/10 02:10:17;;;;;;;6.00;3.92;;;-10.60;99.90;;;;;;4393751;32;20530;-63
2022/03/10 02:12:50;;;;;;;6.07;3.80;;;-10.70;99.90;;;;;;4394258;32;20078;-63
2022/03/10 02:18:12;;;;;;;6.10;3.90;;;-10.70;99.90;;;;;;4395846;32;20081;-63
2022/03/10 02:20:39;;;;;;;6.47;3.65;;;-10.80;99.90;;;;;;4394578;32;20507;-63
2022/03/10 02:23:08;;;;;;;6.60;4.45;;;-10.80;99.90;;;;;;4395888;32;20157;-63
2022/03/10 02:25:37;;;;;;;6.65;4.03;;;-10.80;99.90;;;;;;4395138;32;20078;-63
2022/03/10 02:28:04;;;;;;;6.97;4.15;;;-10.80;99.90;;;;;;4391972;32;20151;-64
2022/03/10 02:30:32;;;;;;;6.12;4.05;;;-10.80;99.90;;;;;;4391980;32;20532;-64
2022/03/10 02:32:59;;;;;;;7.05;4.30;;;-10.70;99.90;;;;;;4392505;32;20526;-62
2022/03/10 02:35:27;;;;;;;6.68;4.45;;;-10.80;99.90;;;;;;4392662;32;20145;-63
2022/03/10 02:37:53;;;;;;;5.95;3.87;;;-10.80;99.90;;;;;;4378482;32;20158;-63
2022/03/10 02:40:20;;;;;;;6.03;4.00;;;-10.70;99.90;;;;;;4378659;32;20101;-63
2022/03/10 02:42:46;;;;;;;6.30;4.10;;;-10.80;99.90;;;;;;4391269;32;20460;-63
2022/03/10 02:45:13;;;;;;;6.25;4.70;;;-10.70;99.90;;;;;;4393303;32;20077;-64
2022/03/10 02:47:39;;;;;;;11.45;7.22;;;-10.80;99.90;;;;;;4378439;32;20520;-63
2022/03/10 02:50:07;;;;;;;7.37;5.40;;;-10.70;99.90;;;;;;4391143;32;20085;-63
2022/03/10 02:52:38;;;;;;;8.38;5.87;;;-10.70;99.90;;;;;;4377828;32;20090;-64
2022/03/10 02:55:06;;;;;;;7.72;5.57;;;-10.70;99.90;;;;;;4390120;32;20080;-64
2022/03/10 02:57:33;;;;;;;8.88;6.60;;;-10.70;99.90;;;;;;4392054;32;20074;-64
2022/03/10 03:00:00;;;;;;;10.88;5.28;;;-10.80;99.90;;;;;;4391672;32;20231;-62
2022/03/10 03:02:27;;;;;;;6.50;5.15;;;-10.70;99.90;;;;;;4390317;32;20074;-64
2022/03/10 03:04:55;;;;;;;8.27;5.07;;;-10.80;99.90;;;;;;4390658;32;20088;-64
2022/03/10 03:07:23;;;;;;;7.97;4.55;;;-10.90;99.90;;;;;;4391492;32;20153;-64
2022/03/10 03:09:49;;;;;;;7.68;4.55;;;-10.80;99.90;;;;;;4392095;32;20096;-64
2022/03/10 03:12:16;;;;;;;5.12;3.50;;;-10.80;99.90;;;;;;4390464;32;20086;-63
2022/03/10 03:14:42;;;;;;;6.20;4.10;;;-10.70;99.90;;;;;;4391891;32;20448;-63
2022/03/10 03:17:08;;;;;;;7.25;4.57;;;-10.70;99.90;;;;;;4390232;32;20170;-63
2022/03/10 03:19:35;;;;;;;7.00;4.20;;;-10.60;99.90;;;;;;4391188;32;20162;-63
2022/03/10 03:22:01;;;;;;;6.70;4.05;;;-10.50;99.90;;;;;;4391435;32;20101;-63
2022/03/10 03:24:27;;;;;;;6.43;4.00;;;-10.50;99.90;;;;;;4391470;32;20085;-63
2022/03/10 03:26:54;;;;;;;7.32;4.57;;;-10.50;99.90;;;;;;4391607;32;20090;-63
2022/03/10 03:29:20;;;;;;;6.35;4.10;;;-10.50;99.90;;;;;;4389709;32;20554;-64
2022/03/10 03:31:47;;;;;;;6.15;3.97;;;-10.50;99.90;;;;;;4389762;32;20081;-64
2022/03/10 03:34:13;;;;;;;5.93;3.72;;;-10.40;99.90;;;;;;4391567;32;20081;-63
2022/03/10 03:36:42;;;;;;;7.55;4.12;;;-10.40;99.90;;;;;;4391291;32;20077;-64
2022/03/10 03:39:09;;;;;;;7.68;4.37;;;-10.40;99.90;;;;;;4390638;32;20519;-62
2022/03/10 03:41:36;;;;;;;7.00;4.28;;;-10.30;99.90;;;;;;4391416;32;20113;-64
2022/03/10 03:44:03;;;;;;;7.55;5.32;;;-10.30;99.90;;;;;;4391366;32;20070;-63
2022/03/10 03:46:29;;;;;;;8.68;5.75;;;-10.40;99.90;;;;;;4391808;32;20168;-62
2022/03/10 03:48:56;;;;;;;7.45;5.22;;;-10.40;99.90;;;;;;4392412;32;20506;-64
2022/03/10 03:51:23;;;;;;;8.77;5.97;;;-10.40;99.90;;;;;;4380433;32;20157;-63
2022/03/10 03:53:50;;;;;;;9.85;6.15;;;-10.40;99.90;;;;;;4394214;32;20070;-63
2022/03/10 03:56:17;;;;;;;8.60;6.60;;;-10.50;99.90;;;;;;4396715;32;20093;-64
2022/03/10 03:58:44;;;;;;;8.73;5.93;;;-10.50;99.90;;;;;;4406191;32;20560;-63
2022/03/10 04:01:10;;;;;;;7.78;5.53;;;-10.40;99.90;;;;;;4394097;32;20096;-63
2022/03/10 04:03:37;;;;;;;9.50;6.05;;;-10.50;99.90;;;;;;4394794;32;20077;-63
2022/03/10 04:06:04;;;;;;;9.90;7.00;;;-10.40;99.90;;;;;;4398325;32;20150;-63
2022/03/10 04:08:31;;;;;;;10.43;6.53;;;-10.40;99.90;;;;;;4388456;32;20075;-63
2022/03/10 04:10:57;;;;;;;7.93;4.97;;;-10.40;99.90;;;;;;4401323;32;20173;-62
2022/03/10 04:13:23;;;;;;;8.75;5.95;;;-10.40;99.90;;;;;;4400994;32;20104;-64
2022/03/10 04:15:51;;;;;;;6.87;4.82;;;-10.40;99.90;;;;;;4397102;32;20093;-64
2022/03/10 04:18:18;;;;;;;8.55;4.87;;;-10.30;99.90;;;;;;4393473;32;20093;-62
2022/03/10 04:20:45;;;;;;;7.60;4.95;;;-10.30;99.90;;;;;;4384414;32;20092;-62
2022/03/10 04:23:13;;;;;;;8.63;5.20;;;-10.30;99.90;;;;;;4398024;32;20178;-63
2022/03/10 04:25:39;;;;;;;7.25;4.25;;;-10.20;99.90;;;;;;4385746;32;20081;-64
2022/03/10 04:28:06;;;;;;;9.27;5.37;;;-10.20;99.90;;;;;;4400504;32;20538;-63
2022/03/10 04:30:38;;;;;;;7.32;3.37;;;-10.20;99.90;;;;;;4381484;32;20479;-63
2022/03/10 04:33:05;;;;;;;11.32;6.07;;;-10.00;99.90;;;;;;4395149;32;20507;-63
2022/03/10 04:35:31;;;;;;;17.33;7.15;;;-10.10;99.90;;;;;;4394197;32;20119;-63
2022/03/10 04:37:57;;;;;;;7.20;4.28;;;-10.10;99.90;;;;;;4394198;32;20162;-64
2022/03/10 04:40:24;;;;;;;9.02;4.35;;;-10.00;99.90;;;;;;4393630;32;20101;-63
2022/03/10 04:42:51;;;;;;;4.37;2.20;;;-10.00;99.90;;;;;;4380624;32;20183;-64
2022/03/10 04:45:18;;;;;;;10.88;4.97;;;-10.00;99.90;;;;;;4394075;32;20074;-64
2022/03/10 04:47:45;;;;;;;8.40;4.62;;;-10.10;99.90;;;;;;4392272;32;20518;-64
2022/03/10 04:50:14;;;;;;;4.35;2.70;;;-10.00;99.90;;;;;;4392235;32;20073;-62
2022/03/10 04:52:41;;;;;;;8.02;4.78;;;-10.00;99.90;;;;;;4392824;32;20093;-64
2022/03/10 04:55:10;;;;;;;9.10;6.12;;;-10.10;99.90;;;;;;4392133;32;20101;-63
2022/03/10 04:57:37;;;;;;;7.40;5.25;;;-10.30;99.90;;;;;;4392215;32;20149;-63
2022/03/10 05:00:10;;;;;;;8.00;4.85;;;-10.30;99.90;;;;;;4393758;32;20084;-64
2022/03/10 05:02:40;;;;;;;9.32;5.75;;;-10.40;99.90;;;;;;4392724;32;20078;-63
2022/03/10 05:05:10;;;;;;;6.78;4.75;;;-10.50;99.90;;;;;;4391912;32;20078;-63
2022/03/10 05:07:36;;;;;;;6.93;5.12;;;-10.50;99.90;;;;;;4391921;32;20084;-63
2022/03/10 05:10:03;;;;;;;7.65;4.25;;;-10.50;99.90;;;;;;4393192;32;20119;-62
2022/03/10 05:12:30;;;;;;;7.78;4.75;;;-10.50;99.90;;;;;;4379095;32;20086;-62
2022/03/10 05:14:56;;;;;;;6.95;4.15;;;-10.50;99.90;;;;;;4391966;32;20089;-62
2022/03/10 05:17:23;;;;;;;5.85;4.37;;;-10.50;99.90;;;;;;4391447;32;20065;-62
2022/03/10 05:19:53;;;;;;;7.85;4.70;;;-10.60;99.90;;;;;;4392220;32;20157;-62
2022/03/10 05:22:19;;;;;;;7.68;4.00;;;-9.60;99.90;;;;;;4392830;32;20078;-62
2022/03/10 05:24:46;;;;;;;6.90;4.12;;;-8.90;99.90;;;;;;4392917;32;20153;-62
2022/03/10 05:27:13;;;;;;;8.70;6.18;;;-8.70;99.90;;;;;;4393104;32;20081;-61
2022/03/10 05:29:40;;;;;;;6.43;3.97;;;-8.90;99.90;;;;;;4392453;32;20115;-62
2022/03/10 05:32:18;;;;;;;6.32;4.75;;;-8.90;99.90;;;;;;4393511;32;20084;-63
2022/03/10 05:34:44;;;;;;;6.22;4.10;;;-9.20;99.90;;;;;;4392468;32;20096;-61
2022/03/10 05:37:10;;;;;;;6.75;4.75;;;-9.20;99.90;;;;;;4391736;32;20177;-62
2022/03/10 05:39:37;;;;;;;6.95;4.60;;;-9.10;99.90;;;;;;4392787;32;20101;-62
2022/03/10 05:42:03;;;;;;;7.35;4.00;;;-9.20;99.90;;;;;;4391047;32;20459;-62
2022/03/10 05:44:29;;;;;;;8.23;4.12;;;-9.20;99.90;;;;;;4378582;32;20496;-62
2022/03/10 05:46:56;;;;;;;5.37;4.07;;;-9.30;99.90;;;;;;4392853;32;20173;-62
2022/03/10 05:49:22;;;;;;;7.00;3.60;;;-9.40;99.90;;;;;;4391231;32;20150;-63
2022/03/10 05:51:48;;;;;;;7.00;4.97;;;-9.40;99.90;;;;;;4392783;32;20140;-62
2022/03/10 05:54:15;;;;;;;7.37;4.53;;;-9.40;99.90;;;;;;4393320;32;20081;-62
2022/03/10 05:56:41;;;;;;;7.62;4.75;;;-8.90;99.90;;;;;;4378809;32;20150;-61
2022/03/10 05:59:08;;;;;;;6.95;3.92;;;-9.00;99.90;;;;;;4392816;32;20173;-62
2022/03/10 06:01:34;;;;;;;7.53;5.05;;;-9.20;99.90;;;;;;4392583;32;20085;-61
2022/03/10 06:04:00;;;;;;;6.47;3.95;;;-8.80;99.90;;;;;;4392878;32;20519;-61
2022/03/10 06:06:27;;;;;;;7.55;4.32;;;-8.90;99.90;;;;;;4390983;32;20158;-64
2022/03/10 06:08:53;;;;;;;7.30;4.97;;;-8.60;99.90;;;;;;4392005;32;20161;-63
2022/03/10 06:11:19;;;;;;;6.80;4.55;;;-8.90;99.90;;;;;;4390786;32;20105;-61
2022/03/10 06:13:46;;;;;;;8.73;4.70;;;-9.10;99.90;;;;;;4390269;32;20089;-62
2022/03/10 06:16:12;;;;;;;6.68;4.60;;;-9.40;99.90;;;;;;4390715;32;20085;-63
2022/03/10 06:18:38;;;;;;;5.93;3.83;;;-9.30;99.90;;;;;;4390755;32;20203;-62
2022/03/10 06:21:05;;;;;;;6.68;4.10;;;-9.60;99.90;;;;;;4392048;32;20510;-61
2022/03/10 06:23:31;;;;;;;8.50;5.05;;;-9.90;99.90;;;;;;4391953;32;20081;-61
2022/03/10 06:25:57;;;;;;;8.18;5.50;;;-9.90;99.90;;;;;;4392114;32;20073;-62
2022/03/10 06:28:24;;;;;;;9.55;5.50;;;-10.20;99.90;;;;;;4391886;32;20576;-62
2022/03/10 06:30:51;;;;;;;7.62;5.25;;;-10.00;99.90;;;;;;4390933;32;20516;-62
2022/03/10 06:33:17;;;;;;;6.68;5.18;;;-10.10;99.90;;;;;;4391006;32;20475;-61
2022/03/10 06:35:44;;;;;;;6.95;4.97;;;-10.20;99.90;;;;;;4392066;32;20081;-61
2022/03/10 06:38:10;;;;;;;8.27;4.80;;;-10.00;99.90;;;;;;4390612;32;20086;-61
2022/03/10 06:40:37;;;;;;;7.87;4.93;;;-9.90;99.90;;;;;;4389933;32;20466;-61
2022/03/10 06:43:03;;;;;;;7.15;4.50;;;-9.80;99.90;;;;;;4390429;32;20526;-63
2022/03/10 06:45:31;;;;;;;8.70;4.93;;;-9.70;99.90;;;;;;4377497;32;20483;-63
2022/03/10 06:47:58;;;;;;;7.72;4.53;;;-9.30;99.90;;;;;;4391865;32;20077;-61
2022/03/10 06:50:25;;;;;;;7.05;4.40;;;-9.40;99.90;;;;;;4391727;32;20170;-61
2022/03/10 06:52:56;;;;;;;6.25;4.18;;;-9.70;99.90;;;;;;4389886;32;20224;-62
2022/03/10 06:55:24;;;;;;;6.68;4.40;;;-9.40;99.90;;;;;;4390726;32;20065;-61
2022/03/10 06:57:52;;;;;;;6.93;4.62;;;-9.40;99.90;;;;;;4403333;32;20154;-61
2022/03/10 07:00:20;;;;;;;7.03;4.55;;;-9.50;99.90;;;;;;4390484;32;20082;-61
2022/03/10 07:02:47;;;;;;;7.70;5.10;;;-9.40;99.90;;;;;;4390053;32;20077;-61
2022/03/10 07:05:14;;;;;;;9.20;6.28;;;-9.40;99.90;;;;;;4389925;32;20169;-62
2022/03/10 07:07:40;;;;;;;8.43;5.22;;;-9.30;99.90;;;;;;4391490;32;20058;-60
2022/03/10 07:10:08;;;;;;;8.10;5.18;;;-9.20;99.90;;;;;;4402645;32;20081;-62
2022/03/10 07:12:36;;;;;;;6.87;4.75;;;-9.00;99.90;;;;;;4377310;32;20520;-63
2022/03/10 07:15:05;;;;;;;7.47;5.37;;;-9.10;99.90;;;;;;4390008;32;20089;-61
2022/03/10 07:17:31;;;;;;;8.90;5.82;;;-9.10;99.90;;;;;;4390125;32;20108;-62
2022/03/10 07:19:58;;;;;;;6.85;4.55;;;-9.00;99.90;;;;;;4389857;32;20066;-62
2022/03/10 07:22:24;;;;;;;7.03;4.53;;;-8.90;99.90;;;;;;4391119;32;20089;-62
2022/03/10 07:24:51;;;;;;;6.50;4.50;;;-9.00;99.90;;;;;;4389769;32;20104;-62
2022/03/10 07:27:17;;;;;;;4.60;3.15;;;-9.30;99.90;;;;;;4389807;32;20528;-62
2022/03/10 07:29:43;;;;;;;7.75;4.35;;;-9.00;99.90;;;;;;4391189;32;20483;-63
2022/03/10 07:32:10;;;;;;;6.70;4.62;;;-9.00;99.90;;;;;;4391200;32;20069;-61
2022/03/10 07:34:36;;;;;;;6.60;4.30;;;-9.10;99.90;;;;;;4389912;32;20080;-62
2022/03/10 07:37:03;;;;;;;6.70;4.43;;;-9.10;99.90;;;;;;4389675;32;20070;-62
2022/03/10 07:39:29;;;;;;;6.30;4.32;;;-9.10;99.90;;;;;;4391404;32;20445;-62
2022/03/10 07:41:56;;;;;;;6.72;4.20;;;-9.00;99.90;;;;;;4389862;32;20097;-62
2022/03/10 07:44:22;;;;;;;6.90;4.85;;;-9.20;99.90;;;;;;4377302;32;20092;-62
2022/03/10 07:46:48;;;;;;;6.93;3.60;;;-9.20;99.90;;;;;;4377820;32;20145;-62
2022/03/10 07:49:15;;;;;;;5.93;4.25;;;-9.30;99.90;;;;;;4393559;32;20067;-62
2022/03/10 07:51:42;;;;;;;7.40;5.03;;;-9.00;99.90;;;;;;4386350;32;20151;-61
2022/03/10 07:54:10;;;;;;;9.40;5.50;;;-9.00;99.90;;;;;;4400219;32;20057;-62
2022/03/10 07:56:36;;;;;;;7.47;5.15;;;-9.00;99.90;;;;;;4399760;32;20077;-62
2022/03/10 07:59:03;;;;;;;6.95;4.65;;;-9.10;99.90;;;;;;4393639;32;20084;-62
2022/03/10 08:01:31;;;;;;;7.05;4.57;;;-8.90;99.90;;;;;;4389794;32;20160;-63
2022/03/10 08:03:57;;;;;;;6.28;4.28;;;-9.00;99.90;;;;;;4389747;32;20088;-63
2022/03/10 08:06:26;;;;;;;8.57;5.62;;;-8.80;99.90;;;;;;4391674;32;20115;-62
2022/03/10 08:08:53;;;;;;;9.05;5.00;;;-9.00;99.90;;;;;;4389983;32;20168;-62
2022/03/10 08:11:19;;;;;;;6.43;4.62;;;-8.90;99.90;;;;;;4390256;32;20083;-62
2022/03/10 08:13:45;;;;;;;6.20;4.50;;;-8.90;99.90;;;;;;4389990;32;20171;-63
2022/03/10 08:16:12;;;;;;;6.47;4.70;;;-8.90;99.90;;;;;;4389330;32;20074;-62
2022/03/10 08:18:38;;;;;;;6.22;4.40;;;-9.00;99.90;;;;;;4391042;32;20531;-62
2022/03/10 08:21:05;;;;;;;6.55;4.60;;;-8.80;99.90;;;;;;4389529;32;20062;-62
2022/03/10 08:23:31;;;;;;;6.57;4.80;;;-8.60;99.90;;;;;;4391495;32;20222;-62
2022/03/10 08:25:57;;;;;;;6.90;4.03;;;-8.70;99.90;;;;;;4390977;32;20153;-62
2022/03/10 08:28:26;;;;;;;7.05;4.43;;;-8.60;99.90;;;;;;4390924;32;20094;-62
2022/03/10 08:30:52;;;;;;;6.90;4.20;;;-8.60;99.90;;;;;;4389542;32;20066;-63
2022/03/10 08:33:19;;;;;;;6.37;4.45;;;-8.70;99.90;;;;;;4389792;32;20077;-61
2022/03/10 08:35:45;;;;;;;6.40;4.93;;;-8.80;99.90;;;;;;4389686;32;20082;-61
2022/03/10 08:38:11;;;;;;;6.80;4.32;;;-8.60;99.90;;;;;;4392632;32;20162;-62
2022/03/10 08:40:37;;;;;;;5.12;2.75;;;-8.60;99.90;;;;;;4392736;32;20427;-63
2022/03/10 08:43:05;;;;;;;8.70;4.68;;;-8.30;99.90;;;;;;4393242;32;20078;-63
2022/03/10 08:45:32;;;;;;;6.85;4.40;;;-8.40;99.90;;;;;;4379062;32;20440;-62
2022/03/10 08:47:58;;;;;;;6.45;4.00;;;-8.30;99.90;;;;;;4392479;32;20073;-61
2022/03/10 08:50:25;;;;;;;8.48;4.68;;;-8.40;99.90;;;;;;4393326;32;20577;-61
2022/03/10 08:52:52;;;;;;;8.88;5.32;;;-8.70;99.90;;;;;;4392461;32;20182;-62
2022/03/10 08:55:19;;;;;;;8.80;4.70;;;-8.50;99.90;;;;;;4391755;32;20074;-61
2022/03/10 08:57:46;;;;;;;7.25;4.90;;;-8.50;99.90;;;;;;4393377;32;20094;-61
2022/03/10 09:00:13;;;;;;;6.95;4.62;;;-8.50;99.90;;;;;;4391616;32;20089;-62
2022/03/10 09:02:41;;;;;;;6.45;4.87;;;-8.60;99.90;;;;;;4393114;32;20088;-62
2022/03/10 09:05:09;;;;;;;6.18;4.60;;;-8.40;99.90;;;;;;4392245;32;20090;-62
2022/03/10 09:07:36;;;;;;;6.68;4.47;;;-8.50;99.90;;;;;;4391567;32;20528;-62
2022/03/10 09:10:04;;;;;;;7.15;3.92;;;-8.70;99.90;;;;;;4393256;32;20076;-62
2022/03/10 09:12:31;;;;;;;8.10;4.40;;;-8.40;99.90;;;;;;4379058;32;20073;-62
2022/03/10 09:14:58;;;;;;;3.50;2.00;;;-8.30;99.90;;;;;;4391122;32;20076;-62
2022/03/10 09:17:24;;;;;;;7.07;4.65;;;-8.20;99.90;;;;;;4392885;32;20158;-63
2022/03/10 09:19:50;;;;;;;6.35;4.10;;;-8.40;99.90;;;;;;4392754;32;20124;-63
2022/03/10 09:22:20;;;;;;;6.87;4.45;;;-8.60;99.90;;;;;;4392812;32;20506;-61
2022/03/10 09:24:47;;;;;;;6.30;4.53;;;-8.40;99.90;;;;;;4379441;32;20514;-61
2022/03/10 09:27:13;;;;;;;5.97;4.25;;;-8.40;99.90;;;;;;4392820;32;20089;-62
2022/03/10 09:29:40;;;;;;;7.43;4.10;;;-8.20;99.90;;;;;;4391021;32;20086;-61
2022/03/10 09:32:06;;;;;;;6.65;4.62;;;-8.20;99.90;;;;;;4391652;32;20080;-61
2022/03/10 09:34:33;;;;;;;7.25;4.68;;;-8.10;99.90;;;;;;4392890;32;20084;-62
2022/03/10 09:36:59;;;;;;;5.90;4.18;;;-8.00;99.90;;;;;;4392760;32;20174;-62
2022/03/10 09:39:25;;;;;;;7.45;4.37;;;-7.90;99.90;;;;;;4391271;32;20089;-62
2022/03/10 09:41:55;;;;;;;6.85;4.20;;;-8.00;99.90;;;;;;4391300;32;20069;-62
2022/03/10 09:44:21;;;;;;;9.38;5.97;;;-7.90;99.90;;;;;;4379223;32;20090;-61
2022/03/10 09:46:50;;;;;;;14.98;7.95;;;-8.20;99.90;;;;;;4378388;32;20152;-62
2022/03/10 09:49:23;;;;;;;13.20;7.00;;;-7.90;99.90;;;;;;4392710;32;20070;-62
2022/03/10 09:51:50;;;;;;;9.80;6.18;;;-7.40;99.90;;;;;;4393090;32;20073;-61
2022/03/10 09:54:17;;;;;;;6.97;5.12;;;-7.50;99.90;;;;;;4392783;32;20069;-61
2022/03/10 09:56:44;;;;;;;7.45;5.10;;;-7.60;99.90;;;;;;4392980;32;20154;-61
2022/03/10 09:59:12;;;;;;;7.22;3.83;;;-7.60;99.90;;;;;;4393391;32;20521;-61
2022/03/10 10:01:38;;;;;;;6.10;4.18;;;-7.50;99.90;;;;;;4393437;32;20076;-62
2022/03/10 10:04:06;;;;;;;7.45;4.78;;;-7.60;99.90;;;;;;4394086;32;20153;-61
2022/03/10 10:07:03;;;;;;;7.03;5.00;;;-7.70;99.90;;;;;;4392574;32;20165;-62
2022/03/10 10:09:53;;;;;;;7.12;4.57;;;-7.50;99.90;;;;;;4390803;32;20156;-62
2022/03/10 10:12:30;;;;;;;7.87;4.55;;;-7.60;99.90;;;;;;4392214;32;20074;-62
2022/03/10 10:14:58;;;;;;;;;;;-7.50;99.90;;;;;;4391296;32;20081;-62
2022/03/10 10:17:30;;;;;;;8.25;5.20;;;-7.50;99.90;;;;;;4390646;32;19972;-61
2022/03/10 10:19:59;;;;;;;8.43;5.70;;;-7.80;99.90;;;;;;4390642;32;20153;-61
2022/03/10 10:22:28;;;;;;;9.02;4.85;;;-7.70;99.90;;;;;;4390569;32;20153;-62
2022/03/10 10:25:00;;;;;;;5.82;4.07;;;-7.40;99.90;;;;;;4390398;32;20081;-61
2022/03/10 10:27:34;;;;;;;8.10;4.45;;;-7.30;99.90;;;;;;4378297;32;20062;-62
2022/03/10 10:30:05;;;;;;;8.05;4.85;;;-7.50;99.90;;;;;;4390488;32;20165;-62
2022/03/10 10:32:33;;;;;;;7.05;4.55;;;-7.40;99.90;;;;;;4391750;32;20066;-61
2022/03/10 10:35:21;;;;;;;6.90;4.65;;;-7.00;99.90;;;;;;4377801;32;20081;-61
2022/03/10 10:37:56;;;;;;;7.05;4.50;;;-7.30;99.90;;;;;;4390366;32;20496;-62
2022/03/10 10:40:31;;;;;;;6.95;5.03;;;-6.90;99.90;;;;;;4390027;32;20085;-62
2022/03/10 10:42:58;;;;;;;10.18;5.32;;;-6.90;99.90;;;;;;4378372;32;20154;-62
2022/03/10 10:45:31;;;;;;;8.68;5.22;;;-6.80;99.90;;;;;;4390314;32;20146;-61
2022/03/10 10:48:09;;;;;;;8.15;4.65;;;-7.10;99.90;;;;;;4391811;32;20081;-61
2022/03/10 10:50:44;;;;;;;8.27;5.00;;;-7.00;99.90;;;;;;4391505;32;20070;-61
2022/03/10 10:53:31;;;;;;;6.12;3.92;;;-7.10;99.90;;;;;;4402971;32;20523;-61
2022/03/10 10:55:57;;;;;;;7.82;4.70;;;-7.20;99.90;;;;;;4391714;32;20163;-61
2022/03/10 10:58:25;;;;;;;9.85;4.45;;;-7.20;99.90;;;;;;4391114;32;20096;-62
2022/03/10 11:00:52;;;;;;;6.85;4.72;;;-7.30;99.90;;;;;;4389548;32;20546;-62
2022/03/10 11:03:26;;;;;;;7.97;5.18;;;-7.10;99.90;;;;;;4389820;32;20595;-61
2022/03/10 11:05:54;;;;;;;6.78;5.07;;;-7.40;99.90;;;;;;4390384;32;20507;-62
2022/03/10 11:08:23;;;;;;;6.85;4.82;;;-7.40;99.90;;;;;;4391046;32;20100;-62
2022/03/10 11:10:51;;;;;;;6.40;4.12;;;-7.20;99.90;;;;;;4377865;32;20065;-61
2022/03/10 11:13:18;;;;;;;7.45;4.93;;;-7.20;99.90;;;;;;4390471;32;20078;-61
2022/03/10 11:15:46;;;;;;;8.02;4.53;;;-7.30;99.90;;;;;;4391455;32;20086;-60
2022/03/10 11:18:14;;;;;;;6.12;4.30;;;-7.10;99.90;;;;;;4402551;32;20176;-62
2022/03/10 11:20:45;;;;;;;7.45;5.37;;;-7.20;99.90;;;;;;4391751;32;20077;-61
2022/03/10 11:24:11;;;;;;;8.18;5.15;;;-7.20;99.90;;;;;;4377590;32;20074;-61
2022/03/10 11:27:55;;;;;;;10.07;5.97;;;-7.30;99.90;;;;;;4346919;32;20079;-61
2022/03/10 11:30:29;;;;;;;10.88;7.20;;;-7.20;99.90;;;;;;4364537;32;20080;-61
2022/03/10 11:33:04;;;;;;;9.23;6.53;;;-7.10;99.90;;;;;;4391118;32;20515;-62
2022/03/10 11:35:42;;;;;;;8.95;5.68;;;-7.30;99.90;;;;;;4391439;32;20055;-62
2022/03/10 11:38:10;;;;;;;8.82;5.35;;;-7.20;99.90;;;;;;4391469;32;20110;-62
2022/03/10 11:40:56;;;;;;;9.27;5.07;;;-7.00;99.90;;;;;;4391204;32;20499;-62
2022/03/10 11:43:32;;;;;;;9.35;5.85;;;-7.20;99.90;;;;;;4389978;32;20085;-62
2022/03/10 11:46:26;;;;;;;;;;;-7.00;99.90;;;;;;4391009;32;20545;-61
2022/03/10 11:49:14;;;;;;;7.55;4.90;;;-7.30;99.90;;;;;;4375124;32;19961;-62
2022/03/10 11:51:56;;;;;;;7.25;5.25;;;-7.10;99.90;;;;;;4389857;32;20066;-61
2022/03/10 11:54:32;;;;;;;10.60;4.93;;;-7.20;99.90;;;;;;4391788;32;20077;-62
2022/03/10 11:57:00;;;;;;;;;;;-7.10;99.90;;;;;;4390103;32;20567;-63
2022/03/10 11:59:33;;;;;;;9.65;5.80;;;-7.00;99.90;;;;;;4389787;32;20347;-64
2022/03/10 12:02:01;;;;;;;10.10;5.65;;;-7.20;99.90;;;;;;4391636;32;20066;-62
2022/03/10 12:04:39;;;;;;;9.93;5.62;;;-7.10;99.90;;;;;;4402186;32;20141;-62
2022/03/10 12:07:10;;;;;;;8.88;5.30;;;-7.00;99.90;;;;;;4389735;32;20081;-61
2022/03/10 12:09:47;;;;;;;9.27;5.78;;;-7.10;99.90;;;;;;4389709;32;20092;-61
2022/03/10 12:12:20;;;;;;;8.82;5.00;;;-7.00;99.90;;;;;;4391386;32;20093;-62
2022/03/10 12:14:47;;;;;;;9.60;6.40;;;-6.80;99.90;;;;;;4393360;32;20090;-61
2022/03/10 12:17:45;;;;;;;9.05;6.37;;;-7.00;99.90;;;;;;4392575;32;20438;-62
2022/03/10 12:20:18;;;;;;;11.18;7.07;;;-6.90;99.90;;;;;;4394235;32;20128;-63
2022/03/10 12:23:15;;;;;;;7.75;5.10;;;-7.00;99.90;;;;;;4394679;32;20084;-61
2022/03/10 12:25:48;;;;;;;7.40;4.93;;;-6.90;99.90;;;;;;4383337;32;20554;-61
2022/03/10 12:28:31;;;;;;;9.50;5.07;;;-6.90;99.90;;;;;;4392242;32;20074;-63
2022/03/10 12:31:03;;;;;;;7.85;4.90;;;-6.90;99.90;;;;;;4392458;32;20128;-61
2022/03/10 12:33:31;;;;;;;7.07;4.75;;;-6.90;99.90;;;;;;4394266;32;20061;-60
2022/03/10 12:35:59;;;;;;;8.38;5.25;;;-6.90;99.90;;;;;;4405451;32;20077;-60
2022/03/10 12:38:46;;;;;;;7.78;5.70;;;-7.00;99.90;;;;;;4393380;32;20073;-61
2022/03/10 12:41:15;;;;;;;8.40;5.57;;;-6.90;99.90;;;;;;4392852;32;20089;-62
2022/03/10 12:43:41;;;;;;;8.80;5.12;;;-7.10;99.90;;;;;;4393808;32;20089;-62
2022/03/10 12:46:08;;;;;;;10.57;5.72;;;-7.00;99.90;;;;;;4392120;32;20077;-62
2022/03/10 12:48:59;;;;;;;11.00;6.10;;;-7.10;99.90;;;;;;4380690;32;20270;-63
2022/03/10 12:51:32;;;;;;;9.57;5.20;;;-7.00;99.90;;;;;;4391973;32;20464;-63
2022/03/10 12:54:01;;;;;;;7.40;5.03;;;-7.20;99.90;;;;;;4379987;32;20081;-62
2022/03/10 12:56:27;;;;;;;8.85;5.75;;;-7.10;99.90;;;;;;4379623;32;20158;-63